createdAt,value
2024-02-08T00:01:01.446Z,68.13
2024-02-08T00:06:15.625Z,68.31
2024-02-08T00:11:18.803Z,67.96
2024-02-08T00:16:22.006Z,68.69
2024-02-08T00:21:25.168Z,69.13
2024-02-08T00:26:28.202Z,68.96
2024-02-08T00:31:31.116Z,68.41
2024-02-08T00:36:34.131Z,68.64
2024-02-08T00:41:37.926Z,68.25
2024-02-08T00:46:41.084Z,68.20
2024-02-08T00:51:44.009Z,68.53
2024-02-08T00:56:46.931Z,68.96
2024-02-08T01:01:49.880Z,68.73
2024-02-08T01:06:52.814Z,68.74
2024-02-08T01:11:56.486Z,68.71
2024-02-08T01:16:59.500Z,69.11
2024-02-08T01:22:02.609Z,69.22
2024-02-08T01:27:05.990Z,70.00
2024-02-08T01:32:09.517Z,69.71
2024-02-08T01:37:16.531Z,69.58
2024-02-08T01:42:19.689Z,69.59
2024-02-08T01:47:23.164Z,69.79
2024-02-08T01:52:26.251Z,70.00
2024-02-08T01:57:29.791Z,70.34
2024-02-08T02:02:37.291Z,70.65
2024-02-08T02:07:40.284Z,70.72
2024-02-08T02:12:46.947Z,70.62
2024-02-08T02:17:50.016Z,70.71
2024-02-08T02:22:53.108Z,70.77
2024-02-08T02:28:02.111Z,71.08
2024-02-08T02:33:07.610Z,71.15
2024-02-08T02:38:14.237Z,71.13
2024-02-08T02:43:17.588Z,71.00
2024-02-08T02:48:22.434Z,70.91
2024-02-08T02:53:25.797Z,70.95
2024-02-08T02:58:28.838Z,70.93
2024-02-08T03:03:39.358Z,70.99
2024-02-08T03:08:45.374Z,71.05
2024-02-08T03:13:50.484Z,70.89
2024-02-08T03:18:53.497Z,70.93
2024-02-08T03:23:58.005Z,70.80
2024-02-08T03:29:01.329Z,70.69
2024-02-08T03:34:04.449Z,70.71
2024-02-08T03:39:14.650Z,70.65
2024-02-08T03:44:17.730Z,70.90
2024-02-08T03:49:21.725Z,71.07
2024-02-08T03:54:31.695Z,71.50
2024-02-08T03:59:42.489Z,71.63
2024-02-08T04:05:01.326Z,71.69
2024-02-08T04:10:21.061Z,71.87
2024-02-08T04:15:42.726Z,71.57
2024-02-08T04:21:04.255Z,71.81
2024-02-08T04:26:28.536Z,71.47
2024-02-08T04:31:50.120Z,71.12
2024-02-08T04:37:11.815Z,71.44
2024-02-08T04:42:33.353Z,71.52
2024-02-08T04:48:05.751Z,71.19
2024-02-08T04:53:29.062Z,71.17
2024-02-08T04:58:56.718Z,71.17
2024-02-08T05:03:55.225Z,71.09
2024-02-08T05:09:01.259Z,71.74
2024-02-08T05:14:06.107Z,71.44
2024-02-08T05:19:12.497Z,70.93
2024-02-08T05:24:15.623Z,70.86
2024-02-08T05:29:22.726Z,70.92
2024-02-08T05:34:27.419Z,71.31
2024-02-08T05:39:31.002Z,71.79
2024-02-08T05:44:41.595Z,72.14
2024-02-08T05:49:51.053Z,71.75
2024-02-08T05:54:54.650Z,71.55
2024-02-08T06:00:01.730Z,71.61
2024-02-08T06:05:11.067Z,71.75
2024-02-08T06:10:16.057Z,71.83
2024-02-08T06:15:23.540Z,71.86
2024-02-08T06:20:46.464Z,72.34
2024-02-08T06:26:21.413Z,72.88
2024-02-08T06:31:35.017Z,72.66
2024-02-08T06:36:59.491Z,72.94
2024-02-08T06:42:28.836Z,73.41
2024-02-08T06:47:52.471Z,73.94
2024-02-08T06:53:14.220Z,74.20
2024-02-08T06:58:36.182Z,74.04
2024-02-08T07:03:59.426Z,73.48
2024-02-08T07:09:22.304Z,72.90
2024-02-08T07:14:44.175Z,73.03
2024-02-08T07:20:05.832Z,73.01
2024-02-08T07:25:27.723Z,72.74
2024-02-08T07:30:49.430Z,72.68
2024-02-08T07:36:11.582Z,72.76
2024-02-08T07:41:20.283Z,72.54
2024-02-08T07:46:32.021Z,72.46
2024-02-08T07:51:35.805Z,72.21
2024-02-08T07:56:47.864Z,71.79
2024-02-08T08:01:52.124Z,71.44
2024-02-08T08:07:01.794Z,70.88
2024-02-08T08:12:06.326Z,69.89
2024-02-08T08:17:09.792Z,69.59
2024-02-08T08:22:26.401Z,69.08
2024-02-08T08:27:48.692Z,60.00
2024-02-08T08:32:54.576Z,54.34
2024-02-08T08:38:20.949Z,50.00
2024-02-08T08:43:25.761Z,53.57
2024-02-08T08:48:35.200Z,53.37
2024-02-08T08:53:48.730Z,54.35
2024-02-08T08:58:52.041Z,50.91
2024-02-08T09:04:24.049Z,50.68
2024-02-08T09:09:50.119Z,54.53
2024-02-08T09:14:55.122Z,55.28
2024-02-08T09:20:00.946Z,57.18
2024-02-08T09:25:22.827Z,58.68
2024-02-08T09:30:40.718Z,56.76
2024-02-08T09:35:44.406Z,53.97
2024-02-08T09:40:48.081Z,52.54
2024-02-08T09:46:10.372Z,53.25
2024-02-08T09:51:24.473Z,51.82
2024-02-08T09:56:51.799Z,50.00
2024-02-08T10:01:57.554Z,50.83
2024-02-08T10:07:07.301Z,48.00
2024-02-08T10:12:21.987Z,46.47
2024-02-08T10:17:42.353Z,45.93
2024-02-08T10:23:06.764Z,42.46
2024-02-08T10:28:10.617Z,40.37
2024-02-08T10:34:12.254Z,39.49
2024-02-08T10:39:27.993Z,43.03
2024-02-08T10:44:36.082Z,47.49
2024-02-08T10:49:46.766Z,50.77
2024-02-08T10:54:58.474Z,53.03
2024-02-08T11:00:14.691Z,56.35
2024-02-08T11:05:23.172Z,58.22
2024-02-08T11:10:33.477Z,59.11
2024-02-08T11:15:49.212Z,60.45
2024-02-08T11:21:05.768Z,61.13
2024-02-08T11:26:09.817Z,61.40
2024-02-08T11:31:23.218Z,62.00
2024-02-08T11:36:36.529Z,61.77
2024-02-08T11:41:44.334Z,62.33
2024-02-08T11:46:52.764Z,60.08
2024-02-08T11:51:56.074Z,59.06
2024-02-08T11:57:07.060Z,59.58
2024-02-08T12:02:13.156Z,60.49
2024-02-08T12:07:21.517Z,61.08
2024-02-08T12:12:26.942Z,61.55
2024-02-08T12:17:30.118Z,62.58
2024-02-08T12:22:33.686Z,57.93
2024-02-08T12:27:37.815Z,59.23
2024-02-08T12:32:41.128Z,61.04
2024-02-08T12:37:56.050Z,61.39
2024-02-08T12:43:10.180Z,62.10
2024-02-08T12:48:22.274Z,57.26
2024-02-08T12:53:27.085Z,58.53
2024-02-08T12:58:46.641Z,61.56
2024-02-08T13:04:01.684Z,65.25
2024-02-08T13:09:36.921Z,58.38
2024-02-08T13:15:08.019Z,60.14
2024-02-08T13:20:20.037Z,62.14
2024-02-08T13:25:31.382Z,61.99
2024-02-08T13:30:38.080Z,61.21
2024-02-08T13:35:42.343Z,61.10
2024-02-08T13:40:46.800Z,60.64
2024-02-08T13:45:56.155Z,60.48
2024-02-08T13:51:07.535Z,60.57
2024-02-08T13:56:13.737Z,60.35
2024-02-08T14:01:26.831Z,59.59
2024-02-08T14:06:31.399Z,61.24
2024-02-08T14:11:40.163Z,63.26
2024-02-08T14:16:46.931Z,57.97
2024-02-08T14:21:55.416Z,57.25
2024-02-08T14:26:58.588Z,59.90
2024-02-08T14:32:07.071Z,62.69
2024-02-08T14:37:13.722Z,65.71
2024-02-08T14:42:26.155Z,61.07
2024-02-08T14:47:32.689Z,56.85
2024-02-08T14:52:37.644Z,58.70
2024-02-08T14:57:43.864Z,60.12
2024-02-08T15:02:57.010Z,62.19
2024-02-08T15:08:09.911Z,65.66
2024-02-08T15:13:20.156Z,62.34
2024-02-08T15:18:40.519Z,59.41
2024-02-08T15:23:50.150Z,62.71
2024-02-08T15:28:58.790Z,62.78
2024-02-08T15:34:23.592Z,62.44
2024-02-08T15:39:30.604Z,62.02
2024-02-08T15:44:37.005Z,62.22
2024-02-08T15:49:44.415Z,62.84
2024-02-08T15:54:52.386Z,62.92
2024-02-08T15:59:58.671Z,63.49
2024-02-08T16:05:15.161Z,63.71
2024-02-08T16:10:25.844Z,64.70
2024-02-08T16:15:29.492Z,64.63
2024-02-08T16:20:40.219Z,64.77
2024-02-08T16:25:46.015Z,65.52
2024-02-08T16:31:00.341Z,65.50
2024-02-08T16:36:24.919Z,65.10
2024-02-08T16:41:32.764Z,65.33
2024-02-08T16:46:38.596Z,65.63
2024-02-08T16:51:52.305Z,65.73
2024-02-08T16:56:57.435Z,66.12
2024-02-08T17:02:13.367Z,66.40
2024-02-08T17:07:47.065Z,66.70
2024-02-08T17:12:56.745Z,66.89
2024-02-08T17:19:09.720Z,67.73
2024-02-08T17:24:23.582Z,66.99
2024-02-08T17:29:36.869Z,66.97
2024-02-08T17:34:41.210Z,68.03
2024-02-08T17:39:49.399Z,67.65
2024-02-08T17:45:02.434Z,68.17
2024-02-08T17:50:06.588Z,67.34
2024-02-08T17:55:09.830Z,68.14
2024-02-08T18:00:23.071Z,67.50
2024-02-08T18:05:28.831Z,67.84
2024-02-08T18:10:51.944Z,68.39
2024-02-08T18:16:04.685Z,67.90
2024-02-08T18:21:15.122Z,67.88
2024-02-08T18:26:28.857Z,68.47
2024-02-08T18:31:38.560Z,68.16
2024-02-08T18:36:47.537Z,67.91
2024-02-08T18:41:52.398Z,68.49
2024-02-08T18:46:56.215Z,68.70
2024-02-08T18:51:59.709Z,68.81
2024-02-08T18:57:10.357Z,68.39
2024-02-08T19:02:13.988Z,68.27
2024-02-08T19:07:19.978Z,68.44
2024-02-08T19:12:27.101Z,68.60
2024-02-08T19:17:31.905Z,68.73
2024-02-08T19:22:35.270Z,68.95
2024-02-08T19:27:39.743Z,68.67
2024-02-08T19:32:44.531Z,68.77
2024-02-08T19:37:51.481Z,69.21
2024-02-08T19:42:54.450Z,69.23
2024-02-08T19:47:57.577Z,68.83
2024-02-08T19:53:07.595Z,69.05
2024-02-08T19:58:11.028Z,69.75
2024-02-08T20:03:21.889Z,69.34
2024-02-08T20:08:27.410Z,69.13
2024-02-08T20:13:31.690Z,69.87
2024-02-08T20:18:38.614Z,70.45
2024-02-08T20:23:41.711Z,70.14
2024-02-08T20:28:45.319Z,70.11
2024-02-08T20:33:49.271Z,70.76
2024-02-08T20:38:55.829Z,71.21
2024-02-08T20:44:08.655Z,71.50
2024-02-08T20:49:16.993Z,71.37
2024-02-08T20:54:20.068Z,71.36
2024-02-08T20:59:24.895Z,71.03
2024-02-08T21:04:29.864Z,71.53
2024-02-08T21:09:32.992Z,71.50
2024-02-08T21:14:36.202Z,71.01
2024-02-08T21:19:44.686Z,70.56
2024-02-08T21:24:49.332Z,70.89
2024-02-08T21:29:55.222Z,71.28
2024-02-08T21:34:58.407Z,71.53
2024-02-08T21:40:02.554Z,71.47
2024-02-08T21:45:06.276Z,71.47
2024-02-08T21:50:11.448Z,71.31
2024-02-08T21:55:17.188Z,71.25
2024-02-08T22:00:20.343Z,71.16
2024-02-08T22:05:23.405Z,71.04
2024-02-08T22:10:27.625Z,70.73
2024-02-08T22:15:33.606Z,70.87
2024-02-08T22:20:36.725Z,70.49
2024-02-08T22:25:39.613Z,70.42
2024-02-08T22:30:44.632Z,70.54
2024-02-08T22:35:48.146Z,70.62
2024-02-08T22:40:51.174Z,70.68
2024-02-08T22:45:54.229Z,70.49
2024-02-08T22:50:57.153Z,70.40
2024-02-08T22:56:01.501Z,70.48
2024-02-08T23:01:24.870Z,70.44
2024-02-08T23:06:32.127Z,70.02
2024-02-08T23:11:38.154Z,70.21
2024-02-08T23:16:41.207Z,70.18
2024-02-08T23:21:53.126Z,70.23
2024-02-08T23:26:56.546Z,70.11
2024-02-08T23:32:00.375Z,69.98
2024-02-08T23:37:08.053Z,69.90
2024-02-08T23:42:11.002Z,69.90
2024-02-08T23:47:18.878Z,69.86
2024-02-08T23:52:21.971Z,69.99
2024-02-08T23:57:24.936Z,70.05
